sensor_id;sensor_type;location;lat;lon;timestamp;P1;durP1;ratioP1;P2;durP2;ratioP2
59770;SDS011;45649;53.014;6.600;2023-04-19T00:00:53;8.37;;;7.53;;
59770;SDS011;45649;53.014;6.600;2023-04-19T00:03:19;7.57;;;6.87;;
59770;SDS011;45649;53.014;6.600;2023-04-19T00:05:45;9.10;;;7.80;;
59770;SDS011;45649;53.014;6.600;2023-04-19T00:08:11;8.13;;;7.33;;
59770;SDS011;45649;53.014;6.600;2023-04-19T00:10:37;7.93;;;6.73;;
59770;SDS011;45649;53.014;6.600;2023-04-19T00:13:04;8.20;;;7.40;;
59770;SDS011;45649;53.014;6.600;2023-04-19T00:15:30;9.07;;;7.80;;
59770;SDS011;45649;53.014;6.600;2023-04-19T00:17:56;8.53;;;7.67;;
59770;SDS011;45649;53.014;6.600;2023-04-19T00:20:22;9.07;;;7.50;;
59770;SDS011;45649;53.014;6.600;2023-04-19T00:22:48;8.93;;;7.40;;
59770;SDS011;45649;53.014;6.600;2023-04-19T00:25:14;8.57;;;7.60;;
59770;SDS011;45649;53.014;6.600;2023-04-19T00:27:41;8.87;;;7.83;;
59770;SDS011;45649;53.014;6.600;2023-04-19T00:30:07;8.13;;;7.13;;
59770;SDS011;45649;53.014;6.600;2023-04-19T00:32:33;8.70;;;7.60;;
59770;SDS011;45649;53.014;6.600;2023-04-19T00:34:59;7.90;;;7.10;;
59770;SDS011;45649;53.014;6.600;2023-04-19T00:37:25;8.73;;;7.40;;
59770;SDS011;45649;53.014;6.600;2023-04-19T00:39:51;8.17;;;7.33;;
59770;SDS011;45649;53.014;6.600;2023-04-19T00:42:17;9.40;;;7.60;;
59770;SDS011;45649;53.014;6.600;2023-04-19T00:44:44;8.77;;;7.63;;
59770;SDS011;45649;53.014;6.600;2023-04-19T00:47:10;8.73;;;7.83;;
59770;SDS011;45649;53.014;6.600;2023-04-19T00:49:36;8.73;;;7.83;;
59770;SDS011;45649;53.014;6.600;2023-04-19T00:52:02;10.20;;;7.60;;
59770;SDS011;45649;53.014;6.600;2023-04-19T00:54:28;7.80;;;7.10;;
59770;SDS011;45649;53.014;6.600;2023-04-19T00:56:54;8.97;;;7.20;;
59770;SDS011;45649;53.014;6.600;2023-04-19T00:59:21;7.97;;;7.17;;
59770;SDS011;45649;53.014;6.600;2023-04-19T01:01:47;9.00;;;8.10;;
59770;SDS011;45649;53.014;6.600;2023-04-19T01:04:13;9.20;;;8.10;;
59770;SDS011;45649;53.014;6.600;2023-04-19T01:06:40;10.23;;;7.87;;
59770;SDS011;45649;53.014;6.600;2023-04-19T01:09:06;9.33;;;8.40;;
59770;SDS011;45649;53.014;6.600;2023-04-19T01:11:33;10.10;;;7.87;;
59770;SDS011;45649;53.014;6.600;2023-04-19T01:13:59;8.97;;;8.07;;
59770;SDS011;45649;53.014;6.600;2023-04-19T01:16:25;9.43;;;8.53;;
59770;SDS011;45649;53.014;6.600;2023-04-19T01:18:52;10.33;;;9.30;;
59770;SDS011;45649;53.014;6.600;2023-04-19T01:21:18;10.40;;;8.23;;
59770;SDS011;45649;53.014;6.600;2023-04-19T01:23:44;10.00;;;8.80;;
59770;SDS011;45649;53.014;6.600;2023-04-19T01:26:10;10.17;;;9.17;;
59770;SDS011;45649;53.014;6.600;2023-04-19T01:28:36;10.33;;;9.27;;
59770;SDS011;45649;53.014;6.600;2023-04-19T01:31:02;10.40;;;9.40;;
59770;SDS011;45649;53.014;6.600;2023-04-19T01:33:28;10.60;;;9.50;;
59770;SDS011;45649;53.014;6.600;2023-04-19T01:35:54;10.50;;;9.50;;
59770;SDS011;45649;53.014;6.600;2023-04-19T01:38:20;10.73;;;9.70;;
59770;SDS011;45649;53.014;6.600;2023-04-19T01:40:46;10.67;;;9.40;;
59770;SDS011;45649;53.014;6.600;2023-04-19T01:43:13;11.03;;;9.93;;
59770;SDS011;45649;53.014;6.600;2023-04-19T01:45:40;11.43;;;9.80;;
59770;SDS011;45649;53.014;6.600;2023-04-19T01:48:06;11.50;;;10.40;;
59770;SDS011;45649;53.014;6.600;2023-04-19T01:50:32;11.27;;;10.00;;
59770;SDS011;45649;53.014;6.600;2023-04-19T01:52:58;11.23;;;10.03;;
59770;SDS011;45649;53.014;6.600;2023-04-19T01:55:24;14.00;;;11.37;;
59770;SDS011;45649;53.014;6.600;2023-04-19T01:57:50;12.07;;;10.87;;
59770;SDS011;45649;53.014;6.600;2023-04-19T02:00:20;11.67;;;10.47;;
59770;SDS011;45649;53.014;6.600;2023-04-19T02:02:46;13.53;;;11.60;;
59770;SDS011;45649;53.014;6.600;2023-04-19T02:05:12;12.23;;;10.93;;
59770;SDS011;45649;53.014;6.600;2023-04-19T02:07:38;12.93;;;11.13;;
59770;SDS011;45649;53.014;6.600;2023-04-19T02:10:05;13.33;;;11.53;;
59770;SDS011;45649;53.014;6.600;2023-04-19T02:12:32;15.67;;;11.17;;
59770;SDS011;45649;53.014;6.600;2023-04-19T02:14:59;12.50;;;10.50;;
59770;SDS011;45649;53.014;6.600;2023-04-19T02:17:28;12.27;;;10.83;;
59770;SDS011;45649;53.014;6.600;2023-04-19T02:19:54;13.57;;;11.13;;
59770;SDS011;45649;53.014;6.600;2023-04-19T02:22:20;12.57;;;10.93;;
59770;SDS011;45649;53.014;6.600;2023-04-19T02:24:48;12.20;;;10.93;;
59770;SDS011;45649;53.014;6.600;2023-04-19T02:27:14;11.73;;;10.60;;
59770;SDS011;45649;53.014;6.600;2023-04-19T02:29:40;12.20;;;11.00;;
59770;SDS011;45649;53.014;6.600;2023-04-19T02:32:06;12.13;;;10.93;;
59770;SDS011;45649;53.014;6.600;2023-04-19T02:34:32;12.80;;;11.20;;
59770;SDS011;45649;53.014;6.600;2023-04-19T02:36:59;12.43;;;11.23;;
59770;SDS011;45649;53.014;6.600;2023-04-19T02:39:25;12.27;;;11.07;;
59770;SDS011;45649;53.014;6.600;2023-04-19T02:41:51;13.23;;;10.93;;
59770;SDS011;45649;53.014;6.600;2023-04-19T02:44:17;12.43;;;11.03;;
59770;SDS011;45649;53.014;6.600;2023-04-19T02:46:50;12.07;;;10.87;;
59770;SDS011;45649;53.014;6.600;2023-04-19T02:49:17;12.80;;;10.83;;
59770;SDS011;45649;53.014;6.600;2023-04-19T02:51:43;12.10;;;10.50;;
59770;SDS011;45649;53.014;6.600;2023-04-19T02:54:09;11.47;;;10.23;;
59770;SDS011;45649;53.014;6.600;2023-04-19T02:56:35;11.53;;;10.43;;
59770;SDS011;45649;53.014;6.600;2023-04-19T02:59:02;10.87;;;9.60;;
59770;SDS011;45649;53.014;6.600;2023-04-19T03:01:28;11.17;;;9.87;;
59770;SDS011;45649;53.014;6.600;2023-04-19T03:03:55;12.57;;;10.53;;
59770;SDS011;45649;53.014;6.600;2023-04-19T03:06:21;11.27;;;9.27;;
59770;SDS011;45649;53.014;6.600;2023-04-19T03:08:47;9.97;;;9.07;;
59770;SDS011;45649;53.014;6.600;2023-04-19T03:11:14;10.00;;;9.00;;
59770;SDS011;45649;53.014;6.600;2023-04-19T03:13:41;9.80;;;8.80;;
59770;SDS011;45649;53.014;6.600;2023-04-19T03:16:07;10.40;;;9.30;;
59770;SDS011;45649;53.014;6.600;2023-04-19T03:18:33;10.17;;;9.03;;
59770;SDS011;45649;53.014;6.600;2023-04-19T03:21:00;10.87;;;8.50;;
59770;SDS011;45649;53.014;6.600;2023-04-19T03:23:26;10.63;;;9.00;;
59770;SDS011;45649;53.014;6.600;2023-04-19T03:25:52;9.77;;;8.77;;
59770;SDS011;45649;53.014;6.600;2023-04-19T03:28:18;9.50;;;8.50;;
59770;SDS011;45649;53.014;6.600;2023-04-19T03:30:45;11.30;;;9.37;;
59770;SDS011;45649;53.014;6.600;2023-04-19T03:33:11;9.80;;;8.13;;
59770;SDS011;45649;53.014;6.600;2023-04-19T03:35:37;9.60;;;8.50;;
59770;SDS011;45649;53.014;6.600;2023-04-19T03:38:03;10.70;;;8.70;;
59770;SDS011;45649;53.014;6.600;2023-04-19T03:40:29;10.93;;;8.47;;
59770;SDS011;45649;53.014;6.600;2023-04-19T03:42:57;9.73;;;8.27;;
59770;SDS011;45649;53.014;6.600;2023-04-19T03:45:23;10.30;;;7.83;;
59770;SDS011;45649;53.014;6.600;2023-04-19T03:47:50;9.93;;;8.67;;
59770;SDS011;45649;53.014;6.600;2023-04-19T03:50:16;9.27;;;8.20;;
59770;SDS011;45649;53.014;6.600;2023-04-19T03:52:42;9.27;;;8.40;;
59770;SDS011;45649;53.014;6.600;2023-04-19T03:55:09;9.07;;;8.17;;
59770;SDS011;45649;53.014;6.600;2023-04-19T03:57:36;9.57;;;7.90;;
59770;SDS011;45649;53.014;6.600;2023-04-19T04:00:03;8.83;;;7.90;;
59770;SDS011;45649;53.014;6.600;2023-04-19T04:02:32;9.17;;;8.37;;
59770;SDS011;45649;53.014;6.600;2023-04-19T04:04:58;10.53;;;8.53;;
59770;SDS011;45649;53.014;6.600;2023-04-19T04:07:25;9.30;;;8.37;;
59770;SDS011;45649;53.014;6.600;2023-04-19T04:09:51;9.77;;;8.23;;
59770;SDS011;45649;53.014;6.600;2023-04-19T04:12:17;15.07;;;7.90;;
59770;SDS011;45649;53.014;6.600;2023-04-19T04:14:43;8.60;;;7.73;;
59770;SDS011;45649;53.014;6.600;2023-04-19T04:17:09;9.40;;;8.03;;
59770;SDS011;45649;53.014;6.600;2023-04-19T04:19:35;8.97;;;7.93;;
59770;SDS011;45649;53.014;6.600;2023-04-19T04:22:02;8.47;;;7.67;;
59770;SDS011;45649;53.014;6.600;2023-04-19T04:24:28;8.33;;;7.20;;
59770;SDS011;45649;53.014;6.600;2023-04-19T04:26:57;8.60;;;7.27;;
59770;SDS011;45649;53.014;6.600;2023-04-19T04:29:25;9.47;;;7.43;;
59770;SDS011;45649;53.014;6.600;2023-04-19T04:31:51;7.93;;;7.20;;
59770;SDS011;45649;53.014;6.600;2023-04-19T04:34:17;8.90;;;7.07;;
59770;SDS011;45649;53.014;6.600;2023-04-19T04:36:44;8.07;;;7.27;;
59770;SDS011;45649;53.014;6.600;2023-04-19T04:39:11;7.67;;;6.83;;
59770;SDS011;45649;53.014;6.600;2023-04-19T04:41:37;8.90;;;7.23;;
59770;SDS011;45649;53.014;6.600;2023-04-19T04:44:06;10.20;;;7.23;;
59770;SDS011;45649;53.014;6.600;2023-04-19T04:46:33;7.67;;;6.60;;
59770;SDS011;45649;53.014;6.600;2023-04-19T04:48:59;8.60;;;7.17;;
59770;SDS011;45649;53.014;6.600;2023-04-19T04:51:25;8.67;;;6.60;;
59770;SDS011;45649;53.014;6.600;2023-04-19T04:53:52;7.10;;;6.40;;
59770;SDS011;45649;53.014;6.600;2023-04-19T04:56:18;9.63;;;6.57;;
59770;SDS011;45649;53.014;6.600;2023-04-19T04:58:44;7.53;;;6.73;;
59770;SDS011;45649;53.014;6.600;2023-04-19T05:01:10;9.87;;;7.00;;
59770;SDS011;45649;53.014;6.600;2023-04-19T05:03:36;7.43;;;6.73;;
59770;SDS011;45649;53.014;6.600;2023-04-19T05:06:02;8.00;;;6.50;;
59770;SDS011;45649;53.014;6.600;2023-04-19T05:08:28;7.57;;;6.83;;
59770;SDS011;45649;53.014;6.600;2023-04-19T05:10:55;9.27;;;6.80;;
59770;SDS011;45649;53.014;6.600;2023-04-19T05:13:21;7.40;;;6.70;;
59770;SDS011;45649;53.014;6.600;2023-04-19T05:15:47;7.30;;;6.53;;
59770;SDS011;45649;53.014;6.600;2023-04-19T05:18:13;7.83;;;6.57;;
59770;SDS011;45649;53.014;6.600;2023-04-19T05:20:39;6.90;;;6.20;;
59770;SDS011;45649;53.014;6.600;2023-04-19T05:23:05;7.03;;;6.37;;
59770;SDS011;45649;53.014;6.600;2023-04-19T05:25:32;8.73;;;6.43;;
59770;SDS011;45649;53.014;6.600;2023-04-19T05:27:58;7.93;;;5.97;;
59770;SDS011;45649;53.014;6.600;2023-04-19T05:30:24;7.80;;;6.50;;
59770;SDS011;45649;53.014;6.600;2023-04-19T05:32:50;6.13;;;5.63;;
59770;SDS011;45649;53.014;6.600;2023-04-19T05:35:16;6.70;;;5.73;;
59770;SDS011;45649;53.014;6.600;2023-04-19T05:37:44;7.23;;;5.93;;
59770;SDS011;45649;53.014;6.600;2023-04-19T05:40:10;6.30;;;5.60;;
59770;SDS011;45649;53.014;6.600;2023-04-19T05:42:37;6.57;;;5.97;;
59770;SDS011;45649;53.014;6.600;2023-04-19T05:45:04;7.00;;;6.30;;
59770;SDS011;45649;53.014;6.600;2023-04-19T05:47:31;6.50;;;5.90;;
59770;SDS011;45649;53.014;6.600;2023-04-19T05:49:57;5.73;;;5.20;;
59770;SDS011;45649;53.014;6.600;2023-04-19T05:52:23;6.27;;;5.73;;
59770;SDS011;45649;53.014;6.600;2023-04-19T05:54:49;6.67;;;5.83;;
59770;SDS011;45649;53.014;6.600;2023-04-19T05:57:15;6.93;;;5.60;;
59770;SDS011;45649;53.014;6.600;2023-04-19T05:59:41;7.87;;;6.20;;
59770;SDS011;45649;53.014;6.600;2023-04-19T06:02:08;7.77;;;5.43;;
59770;SDS011;45649;53.014;6.600;2023-04-19T06:04:34;5.97;;;5.47;;
59770;SDS011;45649;53.014;6.600;2023-04-19T06:07:00;6.47;;;5.87;;
59770;SDS011;45649;53.014;6.600;2023-04-19T06:09:27;8.03;;;5.53;;
59770;SDS011;45649;53.014;6.600;2023-04-19T06:11:53;6.37;;;5.80;;
59770;SDS011;45649;53.014;6.600;2023-04-19T06:14:19;6.27;;;5.67;;
59770;SDS011;45649;53.014;6.600;2023-04-19T06:16:45;7.03;;;5.57;;
59770;SDS011;45649;53.014;6.600;2023-04-19T06:19:11;5.43;;;5.00;;
59770;SDS011;45649;53.014;6.600;2023-04-19T06:21:38;5.77;;;5.17;;
59770;SDS011;45649;53.014;6.600;2023-04-19T06:24:05;5.90;;;5.30;;
59770;SDS011;45649;53.014;6.600;2023-04-19T06:26:31;6.17;;;5.43;;
59770;SDS011;45649;53.014;6.600;2023-04-19T06:28:57;5.30;;;4.80;;
59770;SDS011;45649;53.014;6.600;2023-04-19T06:31:23;5.57;;;5.07;;
59770;SDS011;45649;53.014;6.600;2023-04-19T06:33:49;6.23;;;4.67;;
59770;SDS011;45649;53.014;6.600;2023-04-19T06:36:15;5.70;;;5.20;;
59770;SDS011;45649;53.014;6.600;2023-04-19T06:38:42;5.27;;;4.77;;
59770;SDS011;45649;53.014;6.600;2023-04-19T06:41:11;5.80;;;4.97;;
59770;SDS011;45649;53.014;6.600;2023-04-19T06:43:37;5.60;;;4.70;;
59770;SDS011;45649;53.014;6.600;2023-04-19T06:46:06;4.93;;;4.53;;
59770;SDS011;45649;53.014;6.600;2023-04-19T06:48:33;5.67;;;4.40;;
59770;SDS011;45649;53.014;6.600;2023-04-19T06:51:00;4.90;;;4.40;;
59770;SDS011;45649;53.014;6.600;2023-04-19T06:53:26;5.07;;;4.30;;
59770;SDS011;45649;53.014;6.600;2023-04-19T06:55:56;4.43;;;4.03;;
59770;SDS011;45649;53.014;6.600;2023-04-19T06:58:23;5.00;;;4.33;;
59770;SDS011;45649;53.014;6.600;2023-04-19T07:00:49;4.13;;;3.83;;
59770;SDS011;45649;53.014;6.600;2023-04-19T07:03:15;4.87;;;4.37;;
59770;SDS011;45649;53.014;6.600;2023-04-19T07:05:41;4.53;;;4.10;;
59770;SDS011;45649;53.014;6.600;2023-04-19T07:08:08;4.73;;;4.20;;
59770;SDS011;45649;53.014;6.600;2023-04-19T07:10:34;5.07;;;3.93;;
59770;SDS011;45649;53.014;6.600;2023-04-19T07:13:00;4.57;;;3.83;;
59770;SDS011;45649;53.014;6.600;2023-04-19T07:15:26;4.30;;;3.90;;
59770;SDS011;45649;53.014;6.600;2023-04-19T07:17:52;4.10;;;3.73;;
59770;SDS011;45649;53.014;6.600;2023-04-19T07:20:18;4.40;;;4.00;;
59770;SDS011;45649;53.014;6.600;2023-04-19T07:22:45;4.40;;;3.23;;
59770;SDS011;45649;53.014;6.600;2023-04-19T07:25:12;4.57;;;3.57;;
59770;SDS011;45649;53.014;6.600;2023-04-19T07:27:38;3.87;;;3.50;;
59770;SDS011;45649;53.014;6.600;2023-04-19T07:30:05;3.77;;;3.47;;
59770;SDS011;45649;53.014;6.600;2023-04-19T07:32:31;4.20;;;3.80;;
59770;SDS011;45649;53.014;6.600;2023-04-19T07:34:57;5.27;;;3.13;;
59770;SDS011;45649;53.014;6.600;2023-04-19T07:37:23;3.77;;;3.37;;
59770;SDS011;45649;53.014;6.600;2023-04-19T07:39:49;4.27;;;3.47;;
59770;SDS011;45649;53.014;6.600;2023-04-19T07:42:16;3.63;;;3.33;;
59770;SDS011;45649;53.014;6.600;2023-04-19T07:44:42;4.07;;;3.40;;
59770;SDS011;45649;53.014;6.600;2023-04-19T07:47:08;4.97;;;3.67;;
59770;SDS011;45649;53.014;6.600;2023-04-19T07:49:34;4.30;;;3.70;;
59770;SDS011;45649;53.014;6.600;2023-04-19T07:52:01;3.80;;;3.50;;
59770;SDS011;45649;53.014;6.600;2023-04-19T07:54:27;3.87;;;3.43;;
59770;SDS011;45649;53.014;6.600;2023-04-19T07:56:54;3.50;;;3.20;;
59770;SDS011;45649;53.014;6.600;2023-04-19T07:59:21;3.03;;;2.83;;
59770;SDS011;45649;53.014;6.600;2023-04-19T08:01:48;4.00;;;3.57;;
59770;SDS011;45649;53.014;6.600;2023-04-19T08:04:14;4.60;;;3.23;;
59770;SDS011;45649;53.014;6.600;2023-04-19T08:06:43;3.33;;;3.03;;
59770;SDS011;45649;53.014;6.600;2023-04-19T08:09:10;4.57;;;3.40;;
59770;SDS011;45649;53.014;6.600;2023-04-19T08:11:36;3.73;;;3.43;;
59770;SDS011;45649;53.014;6.600;2023-04-19T08:14:02;3.57;;;3.27;;
59770;SDS011;45649;53.014;6.600;2023-04-19T08:16:28;3.60;;;3.30;;
59770;SDS011;45649;53.014;6.600;2023-04-19T08:18:54;3.50;;;3.20;;
59770;SDS011;45649;53.014;6.600;2023-04-19T08:21:20;4.87;;;2.90;;
59770;SDS011;45649;53.014;6.600;2023-04-19T08:23:46;3.27;;;2.93;;
59770;SDS011;45649;53.014;6.600;2023-04-19T08:26:12;3.10;;;2.90;;
59770;SDS011;45649;53.014;6.600;2023-04-19T08:28:39;3.23;;;2.80;;
59770;SDS011;45649;53.014;6.600;2023-04-19T08:31:05;2.90;;;2.70;;
59770;SDS011;45649;53.014;6.600;2023-04-19T08:33:31;3.83;;;2.63;;
59770;SDS011;45649;53.014;6.600;2023-04-19T08:35:58;2.77;;;2.57;;
59770;SDS011;45649;53.014;6.600;2023-04-19T08:38:24;3.10;;;2.90;;
59770;SDS011;45649;53.014;6.600;2023-04-19T08:40:51;3.17;;;2.87;;
59770;SDS011;45649;53.014;6.600;2023-04-19T08:43:19;3.33;;;2.80;;
59770;SDS011;45649;53.014;6.600;2023-04-19T08:45:46;3.87;;;2.40;;
59770;SDS011;45649;53.014;6.600;2023-04-19T08:48:13;2.57;;;2.30;;
59770;SDS011;45649;53.014;6.600;2023-04-19T08:50:43;3.67;;;2.60;;
59770;SDS011;45649;53.014;6.600;2023-04-19T08:53:13;2.80;;;2.60;;
59770;SDS011;45649;53.014;6.600;2023-04-19T08:55:40;4.43;;;2.70;;
59770;SDS011;45649;53.014;6.600;2023-04-19T08:58:10;2.70;;;2.50;;
59770;SDS011;45649;53.014;6.600;2023-04-19T09:00:39;2.87;;;2.40;;
59770;SDS011;45649;53.014;6.600;2023-04-19T09:03:06;2.90;;;2.60;;
59770;SDS011;45649;53.014;6.600;2023-04-19T09:05:36;3.33;;;2.60;;
59770;SDS011;45649;53.014;6.600;2023-04-19T09:10:53;2.60;;;2.40;;
59770;SDS011;45649;53.014;6.600;2023-04-19T09:13:20;2.50;;;2.30;;
59770;SDS011;45649;53.014;6.600;2023-04-19T09:15:46;2.73;;;2.50;;
59770;SDS011;45649;53.014;6.600;2023-04-19T09:18:12;2.73;;;2.03;;
59770;SDS011;45649;53.014;6.600;2023-04-19T09:20:39;3.90;;;2.50;;
59770;SDS011;45649;53.014;6.600;2023-04-19T09:23:06;2.50;;;2.30;;
59770;SDS011;45649;53.014;6.600;2023-04-19T09:25:33;3.87;;;2.50;;
59770;SDS011;45649;53.014;6.600;2023-04-19T09:30:35;2.37;;;2.17;;
59770;SDS011;45649;53.014;6.600;2023-04-19T09:33:02;3.60;;;1.90;;
59770;SDS011;45649;53.014;6.600;2023-04-19T09:35:41;3.43;;;2.00;;
59770;SDS011;45649;53.014;6.600;2023-04-19T09:38:08;2.20;;;2.00;;
59770;SDS011;45649;53.014;6.600;2023-04-19T09:40:34;5.03;;;1.80;;
59770;SDS011;45649;53.014;6.600;2023-04-19T09:43:01;2.30;;;2.00;;
59770;SDS011;45649;53.014;6.600;2023-04-19T09:45:28;2.30;;;2.10;;
59770;SDS011;45649;53.014;6.600;2023-04-19T09:48:05;2.30;;;2.10;;
59770;SDS011;45649;53.014;6.600;2023-04-19T09:50:31;2.33;;;2.10;;
59770;SDS011;45649;53.014;6.600;2023-04-19T09:52:58;3.67;;;2.27;;
59770;SDS011;45649;53.014;6.600;2023-04-19T09:55:25;2.10;;;2.00;;
59770;SDS011;45649;53.014;6.600;2023-04-19T09:57:51;2.03;;;1.90;;
59770;SDS011;45649;53.014;6.600;2023-04-19T10:00:18;2.83;;;2.03;;
59770;SDS011;45649;53.014;6.600;2023-04-19T10:02:46;3.50;;;1.80;;
59770;SDS011;45649;53.014;6.600;2023-04-19T10:05:19;2.13;;;1.83;;
59770;SDS011;45649;53.014;6.600;2023-04-19T10:07:46;2.60;;;2.00;;
59770;SDS011;45649;53.014;6.600;2023-04-19T10:10:14;3.47;;;2.20;;
59770;SDS011;45649;53.014;6.600;2023-04-19T10:12:42;1.90;;;1.80;;
59770;SDS011;45649;53.014;6.600;2023-04-19T10:15:11;2.40;;;2.10;;
59770;SDS011;45649;53.014;6.600;2023-04-19T10:17:38;2.70;;;1.80;;
59770;SDS011;45649;53.014;6.600;2023-04-19T10:20:05;3.00;;;1.90;;
59770;SDS011;45649;53.014;6.600;2023-04-19T10:22:36;2.30;;;2.10;;
59770;SDS011;45649;53.014;6.600;2023-04-19T10:25:26;3.37;;;2.00;;
59770;SDS011;45649;53.014;6.600;2023-04-19T10:27:52;1.87;;;1.77;;
59770;SDS011;45649;53.014;6.600;2023-04-19T10:30:18;2.40;;;1.70;;
59770;SDS011;45649;53.014;6.600;2023-04-19T10:32:45;2.43;;;1.40;;
59770;SDS011;45649;53.014;6.600;2023-04-19T10:43:16;1.80;;;1.70;;
59770;SDS011;45649;53.014;6.600;2023-04-19T10:45:42;2.13;;;1.67;;
59770;SDS011;45649;53.014;6.600;2023-04-19T10:50:59;1.83;;;1.73;;
59770;SDS011;45649;53.014;6.600;2023-04-19T10:56:11;2.40;;;1.70;;
59770;SDS011;45649;53.014;6.600;2023-04-19T10:59:23;1.90;;;1.70;;
59770;SDS011;45649;53.014;6.600;2023-04-19T11:04:01;3.83;;;1.70;;
59770;SDS011;45649;53.014;6.600;2023-04-19T11:06:27;25.43;;;2.70;;
59770;SDS011;45649;53.014;6.600;2023-04-19T11:08:53;1.67;;;1.50;;
59770;SDS011;45649;53.014;6.600;2023-04-19T11:11:19;1.40;;;1.30;;
59770;SDS011;45649;53.014;6.600;2023-04-19T11:13:46;3.03;;;1.80;;
59770;SDS011;45649;53.014;6.600;2023-04-19T11:16:12;4.53;;;1.80;;
59770;SDS011;45649;53.014;6.600;2023-04-19T11:18:38;1.83;;;1.60;;
59770;SDS011;45649;53.014;6.600;2023-04-19T11:21:04;1.77;;;1.67;;
59770;SDS011;45649;53.014;6.600;2023-04-19T11:23:31;2.17;;;1.67;;
59770;SDS011;45649;53.014;6.600;2023-04-19T11:25:57;2.10;;;2.00;;
59770;SDS011;45649;53.014;6.600;2023-04-19T11:28:23;2.83;;;2.10;;
59770;SDS011;45649;53.014;6.600;2023-04-19T11:30:50;2.70;;;1.70;;
59770;SDS011;45649;53.014;6.600;2023-04-19T11:33:18;3.20;;;1.83;;
59770;SDS011;45649;53.014;6.600;2023-04-19T11:35:49;3.63;;;2.00;;
59770;SDS011;45649;53.014;6.600;2023-04-19T11:38:15;2.00;;;1.90;;
59770;SDS011;45649;53.014;6.600;2023-04-19T11:40:41;5.30;;;2.03;;
59770;SDS011;45649;53.014;6.600;2023-04-19T11:43:08;2.10;;;1.90;;
59770;SDS011;45649;53.014;6.600;2023-04-19T11:45:35;2.20;;;1.90;;
59770;SDS011;45649;53.014;6.600;2023-04-19T11:48:05;2.33;;;2.13;;
59770;SDS011;45649;53.014;6.600;2023-04-19T11:52:58;2.20;;;2.10;;
59770;SDS011;45649;53.014;6.600;2023-04-19T11:55:24;2.50;;;2.30;;
59770;SDS011;45649;53.014;6.600;2023-04-19T11:57:50;2.90;;;2.60;;
59770;SDS011;45649;53.014;6.600;2023-04-19T12:00:25;5.57;;;3.40;;
59770;SDS011;45649;53.014;6.600;2023-04-19T12:02:52;3.10;;;2.80;;
59770;SDS011;45649;53.014;6.600;2023-04-19T12:05:19;5.97;;;3.20;;
59770;SDS011;45649;53.014;6.600;2023-04-19T12:10:23;2.83;;;2.60;;
59770;SDS011;45649;53.014;6.600;2023-04-19T12:12:49;2.97;;;2.70;;
59770;SDS011;45649;53.014;6.600;2023-04-19T12:15:16;3.00;;;2.80;;
59770;SDS011;45649;53.014;6.600;2023-04-19T12:17:57;3.13;;;2.70;;
59770;SDS011;45649;53.014;6.600;2023-04-19T12:20:28;3.57;;;2.70;;
59770;SDS011;45649;53.014;6.600;2023-04-19T12:22:54;3.23;;;2.97;;
59770;SDS011;45649;53.014;6.600;2023-04-19T12:25:20;3.13;;;2.93;;
59770;SDS011;45649;53.014;6.600;2023-04-19T12:27:46;3.10;;;2.90;;
59770;SDS011;45649;53.014;6.600;2023-04-19T12:30:12;3.20;;;3.00;;
59770;SDS011;45649;53.014;6.600;2023-04-19T12:32:38;3.90;;;3.50;;
59770;SDS011;45649;53.014;6.600;2023-04-19T12:35:05;4.17;;;3.63;;
59770;SDS011;45649;53.014;6.600;2023-04-19T12:37:31;4.37;;;3.40;;
59770;SDS011;45649;53.014;6.600;2023-04-19T12:39:57;4.93;;;3.40;;
59770;SDS011;45649;53.014;6.600;2023-04-19T12:42:23;3.30;;;3.00;;
59770;SDS011;45649;53.014;6.600;2023-04-19T12:44:49;7.57;;;3.27;;
59770;SDS011;45649;53.014;6.600;2023-04-19T12:47:15;4.00;;;3.20;;
59770;SDS011;45649;53.014;6.600;2023-04-19T12:49:41;4.40;;;3.40;;
59770;SDS011;45649;53.014;6.600;2023-04-19T12:52:08;4.57;;;2.93;;
59770;SDS011;45649;53.014;6.600;2023-04-19T12:54:34;3.70;;;3.30;;
59770;SDS011;45649;53.014;6.600;2023-04-19T12:57:00;4.53;;;3.23;;
59770;SDS011;45649;53.014;6.600;2023-04-19T12:59:26;3.40;;;3.10;;
59770;SDS011;45649;53.014;6.600;2023-04-19T13:01:52;3.57;;;3.27;;
59770;SDS011;45649;53.014;6.600;2023-04-19T13:04:18;3.93;;;3.10;;
59770;SDS011;45649;53.014;6.600;2023-04-19T13:06:45;3.13;;;2.83;;
59770;SDS011;45649;53.014;6.600;2023-04-19T13:09:11;4.07;;;3.20;;
59770;SDS011;45649;53.014;6.600;2023-04-19T13:11:37;6.67;;;3.20;;
59770;SDS011;45649;53.014;6.600;2023-04-19T13:14:03;3.43;;;3.00;;
59770;SDS011;45649;53.014;6.600;2023-04-19T13:16:29;4.23;;;3.30;;
59770;SDS011;45649;53.014;6.600;2023-04-19T13:18:56;3.30;;;3.00;;
59770;SDS011;45649;53.014;6.600;2023-04-19T13:21:22;6.53;;;2.97;;
59770;SDS011;45649;53.014;6.600;2023-04-19T13:23:48;4.40;;;3.13;;
59770;SDS011;45649;53.014;6.600;2023-04-19T13:26:14;3.10;;;2.90;;
59770;SDS011;45649;53.014;6.600;2023-04-19T13:28:41;3.63;;;3.00;;
59770;SDS011;45649;53.014;6.600;2023-04-19T13:31:07;6.33;;;3.20;;
59770;SDS011;45649;53.014;6.600;2023-04-19T13:33:33;4.47;;;3.03;;
59770;SDS011;45649;53.014;6.600;2023-04-19T13:35:59;4.53;;;3.07;;
59770;SDS011;45649;53.014;6.600;2023-04-19T13:38:25;3.80;;;3.13;;
59770;SDS011;45649;53.014;6.600;2023-04-19T13:40:51;4.30;;;2.80;;
59770;SDS011;45649;53.014;6.600;2023-04-19T13:43:17;4.37;;;3.00;;
59770;SDS011;45649;53.014;6.600;2023-04-19T13:45:44;3.37;;;3.07;;
59770;SDS011;45649;53.014;6.600;2023-04-19T13:48:10;4.60;;;3.33;;
59770;SDS011;45649;53.014;6.600;2023-04-19T13:50:36;3.97;;;2.93;;
59770;SDS011;45649;53.014;6.600;2023-04-19T13:53:03;3.77;;;3.30;;
59770;SDS011;45649;53.014;6.600;2023-04-19T13:55:29;3.27;;;2.90;;
59770;SDS011;45649;53.014;6.600;2023-04-19T13:57:55;3.37;;;3.07;;
59770;SDS011;45649;53.014;6.600;2023-04-19T14:00:21;4.13;;;3.07;;
59770;SDS011;45649;53.014;6.600;2023-04-19T14:02:47;7.00;;;3.17;;
59770;SDS011;45649;53.014;6.600;2023-04-19T14:05:14;5.03;;;2.70;;
59770;SDS011;45649;53.014;6.600;2023-04-19T14:07:40;4.37;;;3.00;;
59770;SDS011;45649;53.014;6.600;2023-04-19T14:10:07;3.40;;;3.03;;
59770;SDS011;45649;53.014;6.600;2023-04-19T14:12:33;3.77;;;3.47;;
59770;SDS011;45649;53.014;6.600;2023-04-19T14:14:59;3.40;;;3.10;;
59770;SDS011;45649;53.014;6.600;2023-04-19T14:17:25;3.57;;;3.17;;
59770;SDS011;45649;53.014;6.600;2023-04-19T14:19:52;6.17;;;3.20;;
59770;SDS011;45649;53.014;6.600;2023-04-19T14:22:18;3.30;;;2.80;;
59770;SDS011;45649;53.014;6.600;2023-04-19T14:24:44;3.40;;;3.20;;
59770;SDS011;45649;53.014;6.600;2023-04-19T14:27:10;5.73;;;3.30;;
59770;SDS011;45649;53.014;6.600;2023-04-19T14:29:37;6.00;;;3.03;;
59770;SDS011;45649;53.014;6.600;2023-04-19T14:32:03;4.83;;;3.13;;
59770;SDS011;45649;53.014;6.600;2023-04-19T14:34:30;3.77;;;3.33;;
59770;SDS011;45649;53.014;6.600;2023-04-19T14:36:56;3.70;;;2.90;;
59770;SDS011;45649;53.014;6.600;2023-04-19T14:39:23;3.83;;;3.43;;
59770;SDS011;45649;53.014;6.600;2023-04-19T14:41:49;3.93;;;3.63;;
59770;SDS011;45649;53.014;6.600;2023-04-19T14:44:15;9.90;;;3.67;;
59770;SDS011;45649;53.014;6.600;2023-04-19T14:46:41;4.73;;;3.50;;
59770;SDS011;45649;53.014;6.600;2023-04-19T14:49:07;3.60;;;3.30;;
59770;SDS011;45649;53.014;6.600;2023-04-19T14:51:37;4.40;;;3.40;;
59770;SDS011;45649;53.014;6.600;2023-04-19T14:54:03;4.67;;;3.40;;
59770;SDS011;45649;53.014;6.600;2023-04-19T14:56:29;4.67;;;3.77;;
59770;SDS011;45649;53.014;6.600;2023-04-19T14:58:56;3.33;;;3.03;;
59770;SDS011;45649;53.014;6.600;2023-04-19T15:01:22;3.73;;;3.20;;
59770;SDS011;45649;53.014;6.600;2023-04-19T15:03:48;4.40;;;3.27;;
59770;SDS011;45649;53.014;6.600;2023-04-19T15:06:15;3.63;;;3.13;;
59770;SDS011;45649;53.014;6.600;2023-04-19T15:08:41;6.20;;;3.17;;